createdAt,value
2022-11-05T00:01:10.563Z,13.41
2022-11-05T00:02:10.067Z,13.38
2022-11-05T00:03:10.770Z,13.37
2022-11-05T00:04:10.377Z,13.34
2022-11-05T00:05:10.580Z,13.33
2022-11-05T00:06:09.976Z,13.32
2022-11-05T00:07:10.617Z,13.30
2022-11-05T00:08:10.092Z,13.27
2022-11-05T00:09:10.025Z,13.26
2022-11-05T00:10:10.528Z,13.22
2022-11-05T00:11:15.174Z,13.20
2022-11-05T00:12:10.371Z,13.20
2022-11-05T00:13:10.773Z,13.19
2022-11-05T00:14:10.524Z,13.18
2022-11-05T00:15:10.053Z,13.19
2022-11-05T00:16:10.693Z,13.18
2022-11-05T00:17:10.335Z,13.17
2022-11-05T00:18:09.800Z,13.15
2022-11-05T00:19:10.438Z,13.12
2022-11-05T00:20:10.189Z,13.10
2022-11-05T00:21:09.902Z,13.06
2022-11-05T00:22:10.517Z,13.06
2022-11-05T00:23:10.137Z,13.02
2022-11-05T00:24:10.028Z,13.01
2022-11-05T00:25:10.893Z,12.97
2022-11-05T00:26:10.950Z,12.94
2022-11-05T00:27:10.419Z,12.96
2022-11-05T00:28:09.732Z,12.91
2022-11-05T00:29:10.482Z,12.87
2022-11-05T00:30:10.074Z,12.88
2022-11-05T00:31:10.660Z,12.87
2022-11-05T00:32:10.185Z,12.85
2022-11-05T00:33:10.619Z,12.81
2022-11-05T00:34:10.452Z,12.78
2022-11-05T00:35:09.645Z,12.75
2022-11-05T00:36:10.396Z,12.72
2022-11-05T00:37:10.337Z,12.69
2022-11-05T00:38:09.843Z,12.65
2022-11-05T00:39:10.386Z,12.61
2022-11-05T00:40:09.944Z,12.60
2022-11-05T00:41:10.015Z,12.56
2022-11-05T00:42:10.517Z,12.56
2022-11-05T00:43:10.141Z,12.53
2022-11-05T00:44:09.751Z,12.51
2022-11-05T00:45:09.856Z,12.49
2022-11-05T00:46:10.263Z,12.40
2022-11-05T00:47:10.607Z,12.33
2022-11-05T00:48:10.133Z,12.30
2022-11-05T00:49:10.616Z,12.27
2022-11-05T00:50:10.114Z,12.27
2022-11-05T00:51:10.215Z,12.29
2022-11-05T00:52:10.428Z,12.28
2022-11-05T00:53:10.967Z,12.27
2022-11-05T00:54:09.483Z,12.25
2022-11-05T00:55:09.830Z,12.23
2022-11-05T00:56:09.930Z,12.25
2022-11-05T00:57:09.929Z,12.25
2022-11-05T00:58:10.248Z,12.25
2022-11-05T00:59:10.370Z,12.26
2022-11-05T01:00:10.499Z,12.23
2022-11-05T01:01:11.953Z,12.23
2022-11-05T01:02:10.838Z,12.22
2022-11-05T01:03:11.102Z,12.19
2022-11-05T01:04:09.884Z,12.19
2022-11-05T01:05:10.456Z,12.15
2022-11-05T01:06:10.096Z,12.12
2022-11-05T01:07:10.441Z,12.08
2022-11-05T01:08:09.925Z,12.03
2022-11-05T01:09:09.909Z,12.02
2022-11-05T01:10:10.597Z,11.99
2022-11-05T01:11:10.057Z,11.99
2022-11-05T01:12:10.417Z,11.97
2022-11-05T01:13:12.942Z,11.93
2022-11-05T01:14:09.751Z,11.93
2022-11-05T01:15:10.263Z,11.90
2022-11-05T01:16:09.863Z,11.85
2022-11-05T01:17:09.861Z,11.83
2022-11-05T01:18:10.199Z,11.81
2022-11-05T01:19:10.270Z,11.82
2022-11-05T01:20:10.691Z,11.81
2022-11-05T01:21:09.601Z,11.80
2022-11-05T01:22:10.197Z,11.81
2022-11-05T01:23:13.563Z,11.81
2022-11-05T01:24:10.005Z,11.80
2022-11-05T01:25:10.468Z,11.78
2022-11-05T01:26:09.889Z,11.78
2022-11-05T01:27:10.313Z,11.77
2022-11-05T01:28:10.030Z,11.76
2022-11-05T01:29:10.305Z,11.75
2022-11-05T01:30:11.023Z,11.75
2022-11-05T01:31:10.350Z,11.77
2022-11-05T01:32:10.624Z,11.75
2022-11-05T01:33:10.145Z,11.75
2022-11-05T01:34:10.657Z,11.73
2022-11-05T01:35:10.038Z,11.69
2022-11-05T01:36:10.529Z,11.71
2022-11-05T01:37:10.538Z,11.67
2022-11-05T01:38:09.903Z,11.62
2022-11-05T01:39:10.336Z,11.62
2022-11-05T01:40:11.038Z,11.60
2022-11-05T01:41:09.976Z,11.55
2022-11-05T01:42:10.458Z,11.52
2022-11-05T01:43:10.146Z,11.48
2022-11-05T01:44:09.789Z,11.47
2022-11-05T01:45:09.925Z,11.48
2022-11-05T01:46:10.413Z,11.46
2022-11-05T01:47:09.755Z,11.48
2022-11-05T01:48:09.750Z,11.51
2022-11-05T01:49:09.930Z,11.51
2022-11-05T01:50:10.529Z,11.53
2022-11-05T01:51:09.860Z,11.52
2022-11-05T01:52:10.169Z,11.5
2022-11-05T01:53:10.984Z,11.51
2022-11-05T01:54:09.726Z,11.52
2022-11-05T01:55:10.234Z,11.5
2022-11-05T01:56:10.713Z,11.47
2022-11-05T01:57:10.001Z,11.50
2022-11-05T01:58:10.455Z,11.52
2022-11-05T01:59:09.638Z,11.54
2022-11-05T02:00:10.702Z,11.56
2022-11-05T02:01:10.609Z,11.57
2022-11-05T02:02:10.004Z,11.55
2022-11-05T02:03:10.941Z,11.56
2022-11-05T02:04:11.057Z,11.55
2022-11-05T02:05:10.130Z,11.57
2022-11-05T02:06:09.626Z,11.60
2022-11-05T02:07:09.677Z,11.60
2022-11-05T02:08:10.020Z,11.62
2022-11-05T02:09:10.550Z,11.62
2022-11-05T02:10:10.268Z,11.62
2022-11-05T02:11:10.662Z,11.62
2022-11-05T02:12:09.983Z,11.60
2022-11-05T02:13:10.610Z,11.60
2022-11-05T02:14:10.381Z,11.62
2022-11-05T02:16:09.861Z,11.62
2022-11-05T02:17:10.145Z,11.61
2022-11-05T02:18:10.812Z,11.61
2022-11-05T02:19:10.012Z,11.60
2022-11-05T02:20:10.675Z,11.62
2022-11-05T02:21:09.818Z,11.60
2022-11-05T02:22:10.006Z,11.59
2022-11-05T02:23:10.909Z,11.56
2022-11-05T02:24:10.525Z,11.53
2022-11-05T02:25:09.886Z,11.54
2022-11-05T02:26:10.201Z,11.51
2022-11-05T02:27:10.339Z,11.52
2022-11-05T02:28:09.665Z,11.51
2022-11-05T02:29:09.979Z,11.50
2022-11-05T02:30:10.775Z,11.51
2022-11-05T02:32:10.485Z,11.51
2022-11-05T02:33:10.129Z,11.5
2022-11-05T02:34:09.848Z,11.50
2022-11-05T02:35:10.402Z,11.48
2022-11-05T02:36:10.765Z,11.48
2022-11-05T02:37:09.281Z,11.49
2022-11-05T02:38:09.731Z,11.49
2022-11-05T02:39:10.107Z,11.49
2022-11-05T02:40:10.678Z,11.48
2022-11-05T02:41:09.973Z,11.49
2022-11-05T02:42:10.112Z,11.5
2022-11-05T02:43:10.614Z,11.50
2022-11-05T02:44:10.253Z,11.48
2022-11-05T02:45:10.869Z,11.5
2022-11-05T02:46:10.393Z,11.47
2022-11-05T02:47:14.110Z,11.47
2022-11-05T02:48:10.563Z,11.47
2022-11-05T02:49:09.751Z,11.47
2022-11-05T02:50:10.376Z,11.46
2022-11-05T02:51:09.694Z,11.43
2022-11-05T02:52:10.158Z,11.42
2022-11-05T02:53:10.817Z,11.43
2022-11-05T02:54:10.412Z,11.43
2022-11-05T02:55:11.080Z,11.42
2022-11-05T02:56:10.741Z,11.40
2022-11-05T02:57:10.042Z,11.39
2022-11-05T02:58:10.677Z,11.39
2022-11-05T02:59:10.063Z,11.39
2022-11-05T03:00:11.229Z,11.38
2022-11-05T03:01:10.194Z,11.39
2022-11-05T03:02:10.682Z,11.38
2022-11-05T03:03:10.540Z,11.37
2022-11-05T03:04:09.966Z,11.38
2022-11-05T03:05:10.469Z,11.35
2022-11-05T03:06:10.032Z,11.32
2022-11-05T03:07:10.106Z,11.32
2022-11-05T03:08:10.428Z,11.32
2022-11-05T03:09:10.924Z,11.28
2022-11-05T03:10:10.599Z,11.28
2022-11-05T03:11:09.568Z,11.26
2022-11-05T03:12:09.735Z,11.26
2022-11-05T03:13:10.325Z,11.23
2022-11-05T03:14:09.783Z,11.24
2022-11-05T03:15:10.302Z,11.22
2022-11-05T03:16:10.583Z,11.19
2022-11-05T03:17:09.755Z,11.16
2022-11-05T03:18:10.293Z,11.14
2022-11-05T03:19:10.611Z,11.12
2022-11-05T03:20:09.926Z,11.11
2022-11-05T03:21:10.320Z,11.10
2022-11-05T03:22:09.765Z,11.10
2022-11-05T03:23:09.997Z,11.07
2022-11-05T03:24:10.510Z,11.08
2022-11-05T03:25:09.723Z,11.08
2022-11-05T03:26:10.304Z,11.06
2022-11-05T03:27:10.944Z,11.06
2022-11-05T03:28:10.729Z,11.06
2022-11-05T03:29:10.354Z,11.02
2022-11-05T03:30:09.611Z,11.01
2022-11-05T03:31:09.752Z,11.03
2022-11-05T03:32:10.157Z,11.03
2022-11-05T03:33:10.897Z,11.03
2022-11-05T03:34:10.421Z,11.05
2022-11-05T03:35:09.600Z,11.02
2022-11-05T03:36:09.743Z,11.02
2022-11-05T03:37:09.952Z,11.01
2022-11-05T03:38:10.147Z,11.03
2022-11-05T03:39:10.691Z,11.02
2022-11-05T03:40:10.203Z,11.02
2022-11-05T03:41:09.736Z,11.02
2022-11-05T03:42:09.878Z,11.02
2022-11-05T03:43:10.219Z,11.02
2022-11-05T03:44:09.691Z,11.00
2022-11-05T03:45:09.949Z,11.02
2022-11-05T03:46:10.482Z,11.02
2022-11-05T03:47:10.463Z,11.01
2022-11-05T03:48:09.724Z,11.03
2022-11-05T03:49:10.466Z,11.04
2022-11-05T03:50:09.603Z,11.05
2022-11-05T03:51:09.860Z,11.07
2022-11-05T03:52:10.088Z,11.05
2022-11-05T03:53:10.581Z,11.05
2022-11-05T03:54:10.014Z,11.05
2022-11-05T03:55:09.810Z,11.05
2022-11-05T03:56:10.054Z,11.07
2022-11-05T03:57:10.494Z,11.06
2022-11-05T03:58:09.814Z,11.05
2022-11-05T03:59:10.096Z,11.06
2022-11-05T04:00:10.854Z,11.06
2022-11-05T04:01:10.537Z,11.04
2022-11-05T04:02:10.207Z,11.05
2022-11-05T04:03:10.698Z,11.02
2022-11-05T04:04:10.435Z,11.02
2022-11-05T04:05:09.923Z,11.04
2022-11-05T04:06:10.013Z,11.02
2022-11-05T04:07:10.660Z,11.01
2022-11-05T04:08:14.083Z,11.01
2022-11-05T04:09:10.572Z,11
2022-11-05T04:10:09.986Z,10.99
2022-11-05T04:11:10.158Z,10.98
2022-11-05T04:12:10.389Z,10.97
2022-11-05T04:13:10.631Z,10.98
2022-11-05T04:14:10.269Z,10.96
2022-11-05T04:15:10.754Z,10.94
2022-11-05T04:16:10.015Z,10.91
2022-11-05T04:17:10.435Z,10.88
2022-11-05T04:18:09.853Z,10.87
2022-11-05T04:19:10.229Z,10.85
2022-11-05T04:20:10.775Z,10.87
2022-11-05T04:21:10.139Z,10.85
2022-11-05T04:22:10.672Z,10.84
2022-11-05T04:23:10.107Z,10.80
2022-11-05T04:24:09.776Z,10.82
2022-11-05T04:25:10.645Z,10.82
2022-11-05T04:26:10.099Z,10.82
2022-11-05T04:27:10.588Z,10.81
2022-11-05T04:28:10.065Z,10.81
2022-11-05T04:29:10.473Z,10.81
2022-11-05T04:30:09.993Z,10.81
2022-11-05T04:31:10.145Z,10.81
2022-11-05T04:32:10.650Z,10.82
2022-11-05T04:33:10.110Z,10.81
2022-11-05T04:34:09.935Z,10.81
2022-11-05T04:35:10.653Z,10.83
2022-11-05T04:36:10.181Z,10.81
2022-11-05T04:37:09.810Z,10.81
2022-11-05T04:38:10.081Z,10.80
2022-11-05T04:39:10.405Z,10.80
2022-11-05T04:40:09.859Z,10.81
2022-11-05T04:41:10.621Z,10.81
2022-11-05T04:42:10.358Z,10.82
2022-11-05T04:43:14.849Z,10.81
2022-11-05T04:44:10.583Z,10.81
2022-11-05T04:45:10.347Z,10.79
2022-11-05T04:46:09.787Z,10.79
2022-11-05T04:47:10.016Z,10.81
2022-11-05T04:48:10.256Z,10.80
2022-11-05T04:49:10.701Z,10.78
2022-11-05T04:50:10.513Z,10.81
2022-11-05T04:51:10.163Z,10.81
2022-11-05T04:52:10.494Z,10.81
2022-11-05T04:53:10.381Z,10.82
2022-11-05T04:54:10.082Z,10.86
2022-11-05T04:55:10.460Z,10.87
2022-11-05T04:56:10.129Z,10.87
2022-11-05T04:57:10.858Z,10.87
2022-11-05T04:58:10.566Z,10.86
2022-11-05T04:59:09.708Z,10.91
2022-11-05T05:00:11.015Z,10.89
2022-11-05T05:01:10.236Z,10.89
2022-11-05T05:02:10.349Z,10.89
2022-11-05T05:03:10.149Z,10.90
2022-11-05T05:04:09.800Z,10.90
2022-11-05T05:05:10.583Z,10.89
2022-11-05T05:06:10.253Z,10.92
2022-11-05T05:07:10.364Z,10.93
2022-11-05T05:08:10.038Z,10.93
2022-11-05T05:09:10.374Z,10.93
2022-11-05T05:10:09.967Z,10.93
2022-11-05T05:11:10.514Z,10.92
2022-11-05T05:12:10.281Z,10.90
2022-11-05T05:13:10.477Z,10.93
2022-11-05T05:14:10.294Z,10.92
2022-11-05T05:15:10.412Z,10.94
2022-11-05T05:16:09.872Z,10.94
2022-11-05T05:17:10.652Z,10.93
2022-11-05T05:18:10.280Z,10.90
2022-11-05T05:19:10.117Z,10.90
2022-11-05T05:20:09.908Z,10.86
2022-11-05T05:21:10.399Z,10.86
2022-11-05T05:22:09.990Z,10.82
2022-11-05T05:23:10.855Z,10.81
2022-11-05T05:24:10.489Z,10.77
2022-11-05T05:25:09.927Z,10.75
2022-11-05T05:26:09.696Z,10.70
2022-11-05T05:27:10.361Z,10.67
2022-11-05T05:28:10.100Z,10.64
2022-11-05T05:29:10.662Z,10.64
2022-11-05T05:30:10.609Z,10.63
2022-11-05T05:31:10.014Z,10.63
2022-11-05T05:32:10.737Z,10.60
2022-11-05T05:33:10.738Z,10.57
2022-11-05T05:34:09.862Z,10.55
2022-11-05T05:35:10.567Z,10.51
2022-11-05T05:36:11.501Z,10.53
2022-11-05T05:37:10.275Z,10.5
2022-11-05T05:38:10.026Z,10.48
2022-11-05T05:39:10.990Z,10.5
2022-11-05T05:40:09.782Z,10.45
2022-11-05T05:41:10.714Z,10.44
2022-11-05T05:42:10.142Z,10.45
2022-11-05T05:43:10.866Z,10.43
2022-11-05T05:44:10.531Z,10.39
2022-11-05T05:45:10.932Z,10.36
2022-11-05T05:46:10.231Z,10.39
2022-11-05T05:47:10.360Z,10.40
2022-11-05T05:48:10.657Z,10.38
2022-11-05T05:49:12.444Z,10.36
2022-11-05T05:50:09.935Z,10.39
2022-11-05T05:51:10.235Z,10.38
2022-11-05T05:52:10.599Z,10.39
2022-11-05T05:53:10.174Z,10.38
2022-11-05T05:54:09.889Z,10.35
2022-11-05T05:55:10.346Z,10.35
2022-11-05T05:56:09.737Z,10.33
2022-11-05T05:57:10.285Z,10.36
2022-11-05T05:58:09.689Z,10.36
2022-11-05T05:59:10.151Z,10.35
2022-11-05T06:00:11.249Z,10.34
2022-11-05T06:01:14.138Z,10.33
2022-11-05T06:02:10.498Z,10.34
2022-11-05T06:03:10.585Z,10.30
2022-11-05T06:04:10.225Z,10.28
2022-11-05T06:05:15.324Z,10.25
2022-11-05T06:06:09.876Z,10.24
2022-11-05T06:07:10.473Z,10.22
2022-11-05T06:08:10.012Z,10.22
2022-11-05T06:09:10.733Z,10.23
2022-11-05T06:10:10.673Z,10.22
2022-11-05T06:11:10.616Z,10.22
2022-11-05T06:12:10.724Z,10.19
2022-11-05T06:13:18.379Z,10.17
2022-11-05T06:14:10.812Z,10.16
2022-11-05T06:15:10.315Z,10.12
2022-11-05T06:16:10.359Z,10.05
2022-11-05T06:17:10.148Z,10.03
2022-11-05T06:18:10.671Z,10.02
2022-11-05T06:19:09.695Z,9.979
2022-11-05T06:20:10.231Z,9.975
2022-11-05T06:21:09.696Z,9.965
2022-11-05T06:22:10.154Z,9.965
2022-11-05T06:23:11.098Z,9.960
2022-11-05T06:24:09.866Z,9.979
2022-11-05T06:25:10.489Z,9.965
2022-11-05T06:26:09.892Z,9.944
2022-11-05T06:27:10.557Z,9.899
2022-11-05T06:28:09.906Z,9.880
2022-11-05T06:29:10.139Z,9.887
2022-11-05T06:30:10.748Z,9.904
2022-11-05T06:31:10.467Z,9.899
2022-11-05T06:32:09.917Z,9.904
2022-11-05T06:33:10.629Z,9.909
2022-11-05T06:34:10.347Z,9.904
2022-11-05T06:35:10.046Z,9.909
2022-11-05T06:36:10.506Z,9.920
2022-11-05T06:37:09.872Z,9.935
2022-11-05T06:38:10.098Z,9.930
2022-11-05T06:39:10.718Z,9.920
2022-11-05T06:40:10.268Z,9.935
2022-11-05T06:41:10.914Z,9.944
2022-11-05T06:42:19.120Z,9.965
2022-11-05T06:43:10.243Z,9.975
2022-11-05T06:44:09.964Z,9.970
2022-11-05T06:45:10.623Z,9.994
2022-11-05T06:46:10.626Z,10.01
2022-11-05T06:47:10.428Z,10.02
2022-11-05T06:48:10.177Z,10.06
2022-11-05T06:49:11.008Z,10.06
2022-11-05T06:50:11.147Z,10.07
2022-11-05T06:51:10.747Z,10.10
2022-11-05T06:52:10.701Z,10.09
2022-11-05T06:53:11.162Z,10.15
2022-11-05T06:54:10.315Z,10.13
2022-11-05T06:55:11.335Z,10.13
2022-11-05T06:56:10.098Z,10.11
2022-11-05T06:57:10.737Z,10.14
2022-11-05T06:58:10.148Z,10.16
2022-11-05T06:59:10.624Z,10.16
2022-11-05T07:00:10.918Z,10.19
2022-11-05T07:01:10.300Z,10.18
2022-11-05T07:02:10.792Z,10.19
2022-11-05T07:03:10.962Z,10.20
2022-11-05T07:04:10.822Z,10.21
2022-11-05T07:05:10.563Z,10.22
2022-11-05T07:06:10.133Z,10.25
2022-11-05T07:07:10.746Z,10.26
2022-11-05T07:08:10.476Z,10.29
2022-11-05T07:09:10.233Z,10.28
2022-11-05T07:10:10.975Z,10.30
2022-11-05T07:11:10.364Z,10.32
2022-11-05T07:12:10.021Z,10.33
2022-11-05T07:13:11.038Z,10.36
2022-11-05T07:14:10.374Z,10.37
2022-11-05T07:15:09.963Z,10.36
2022-11-05T07:16:10.611Z,10.33
2022-11-05T07:17:09.944Z,10.30
2022-11-05T07:18:10.772Z,10.31
2022-11-05T07:19:10.268Z,10.31
2022-11-05T07:20:10.043Z,10.35
2022-11-05T07:21:10.597Z,10.35
2022-11-05T07:22:10.152Z,10.38
2022-11-05T07:23:11.190Z,10.38
2022-11-05T07:24:09.833Z,10.42
2022-11-05T07:25:10.444Z,10.43
2022-11-05T07:26:09.858Z,10.44
2022-11-05T07:27:10.506Z,10.49
2022-11-05T07:28:09.663Z,10.5
2022-11-05T07:29:10.109Z,10.53
2022-11-05T07:30:10.772Z,10.55
2022-11-05T07:31:10.200Z,10.56
2022-11-05T07:32:10.805Z,10.58
2022-11-05T07:33:10.589Z,10.62
2022-11-05T07:34:10.098Z,10.64
2022-11-05T07:35:10.409Z,10.64
2022-11-05T07:36:09.789Z,10.65
2022-11-05T07:37:10.129Z,10.68
2022-11-05T07:38:10.613Z,10.71
2022-11-05T07:39:09.988Z,10.73
2022-11-05T07:40:10.872Z,10.71
2022-11-05T07:41:10.047Z,10.72
2022-11-05T07:42:10.503Z,10.76
2022-11-05T07:43:10.211Z,10.80
2022-11-05T07:44:10.012Z,10.84
2022-11-05T07:45:10.790Z,10.87
2022-11-05T07:46:13.795Z,10.89
2022-11-05T07:47:10.394Z,10.92
2022-11-05T07:48:09.714Z,10.95
2022-11-05T07:49:09.696Z,10.98
2022-11-05T07:50:10.569Z,11.01
2022-11-05T07:51:10.666Z,11.02
2022-11-05T07:52:10.122Z,11.06
2022-11-05T07:53:10.473Z,11.08
2022-11-05T07:54:10.207Z,11.06
2022-11-05T07:55:10.603Z,11.10
2022-11-05T07:56:10.160Z,11.14
2022-11-05T07:57:10.884Z,11.12
2022-11-05T07:58:10.433Z,11.19
2022-11-05T07:59:09.727Z,11.27
2022-11-05T08:00:11.379Z,11.28
2022-11-05T08:01:10.650Z,11.33
2022-11-05T08:02:11.228Z,11.38
2022-11-05T08:03:10.607Z,11.43
2022-11-05T08:04:10.508Z,11.48
2022-11-05T08:05:10.184Z,11.47
2022-11-05T08:06:10.755Z,11.51
2022-11-05T08:07:10.072Z,11.55
2022-11-05T08:08:10.548Z,11.60
2022-11-05T08:09:09.815Z,11.63
2022-11-05T08:10:10.440Z,11.70
2022-11-05T08:11:09.916Z,11.75
2022-11-05T08:12:10.365Z,11.81
2022-11-05T08:13:11.189Z,11.86
2022-11-05T08:14:10.172Z,11.93
2022-11-05T08:15:10.973Z,11.93
2022-11-05T08:16:11.151Z,11.98
2022-11-05T08:17:14.631Z,12.01
2022-11-05T08:18:10.285Z,12.06
2022-11-05T08:19:10.891Z,12.11
2022-11-05T08:20:10.512Z,12.15
2022-11-05T08:21:10.013Z,12.22
2022-11-05T08:22:10.608Z,12.27
2022-11-05T08:23:10.265Z,12.34
2022-11-05T08:24:10.071Z,12.38
2022-11-05T08:25:10.385Z,12.43
2022-11-05T08:26:15.029Z,12.47
2022-11-05T08:27:10.550Z,12.53
2022-11-05T08:28:10.034Z,12.59
2022-11-05T08:29:11.340Z,12.64
2022-11-05T08:30:10.845Z,12.69
2022-11-05T08:31:10.555Z,12.76
2022-11-05T08:32:09.940Z,12.81
2022-11-05T08:33:10.962Z,12.87
2022-11-05T08:34:10.651Z,12.90
2022-11-05T08:35:10.070Z,12.93
2022-11-05T08:36:10.654Z,12.97
2022-11-05T08:37:10.027Z,12.98
2022-11-05T08:38:10.633Z,13.03
2022-11-05T08:39:15.799Z,13.07
2022-11-05T08:40:10.293Z,13.11
2022-11-05T08:41:10.042Z,13.16
2022-11-05T08:42:12.696Z,13.18
2022-11-05T08:43:10.246Z,13.21
2022-11-05T08:44:23.634Z,13.25
2022-11-05T08:45:09.856Z,13.29
2022-11-05T08:46:24.708Z,13.32
2022-11-05T08:47:09.938Z,13.37
2022-11-05T08:48:24.524Z,13.41
2022-11-05T08:49:10.619Z,13.43
2022-11-05T08:50:10.242Z,13.50
2022-11-05T08:51:09.880Z,13.53
2022-11-05T08:52:10.211Z,13.58
2022-11-05T08:53:11.276Z,13.59
2022-11-05T08:54:09.936Z,13.63
2022-11-05T08:55:10.670Z,13.67
2022-11-05T08:56:10.419Z,13.69
2022-11-05T08:57:09.993Z,13.72
2022-11-05T08:58:10.641Z,13.77
2022-11-05T08:59:10.102Z,13.80
2022-11-05T09:00:11.403Z,13.83
2022-11-05T09:01:10.128Z,13.84
2022-11-05T09:02:10.810Z,13.89
2022-11-05T09:03:10.193Z,13.88
2022-11-05T09:04:10.243Z,13.87
2022-11-05T09:05:11.069Z,13.90
2022-11-05T09:06:10.736Z,13.91
2022-11-05T09:07:10.067Z,13.93
2022-11-05T09:08:10.793Z,13.97
2022-11-05T09:09:10.313Z,13.94
2022-11-05T09:10:09.892Z,14
2022-11-05T09:11:10.039Z,14.02
2022-11-05T09:12:12.994Z,14.05
2022-11-05T09:13:16.602Z,14.04
2022-11-05T09:14:10.277Z,14.07
2022-11-05T09:15:10.512Z,14.10
2022-11-05T09:16:09.940Z,14.10
2022-11-05T09:17:10.349Z,14.16
2022-11-05T09:18:09.904Z,14.17
2022-11-05T09:19:10.761Z,14.19
2022-11-05T09:20:10.268Z,14.22
2022-11-05T09:21:09.883Z,14.26
2022-11-05T09:22:10.695Z,14.30
2022-11-05T09:23:10.221Z,14.34
2022-11-05T09:24:09.832Z,14.36
2022-11-05T09:25:10.475Z,14.40
2022-11-05T09:26:10.129Z,14.42
2022-11-05T09:27:10.399Z,14.43
2022-11-05T09:28:14.648Z,14.46
2022-11-05T09:29:14.245Z,14.48
2022-11-05T09:30:09.886Z,14.51
2022-11-05T09:31:10.631Z,14.52
2022-11-05T09:32:10.243Z,14.56
2022-11-05T09:33:11.183Z,14.56
2022-11-05T09:34:09.671Z,14.60
2022-11-05T09:35:10.479Z,14.63
2022-11-05T09:36:10.135Z,14.67
2022-11-05T09:37:10.615Z,14.70
2022-11-05T09:38:10.451Z,14.69
2022-11-05T09:39:10.137Z,14.72
2022-11-05T09:40:11.083Z,14.72
2022-11-05T09:41:09.594Z,14.75
2022-11-05T09:42:10.215Z,14.77
2022-11-05T09:43:10.150Z,14.79
2022-11-05T09:45:10.224Z,14.77
2022-11-05T09:46:09.999Z,14.78
2022-11-05T09:47:10.708Z,14.79
2022-11-05T09:48:10.097Z,14.80
2022-11-05T09:49:09.752Z,14.81
2022-11-05T09:50:10.396Z,14.85
2022-11-05T09:51:10.041Z,14.86
2022-11-05T09:52:10.712Z,14.85
2022-11-05T09:53:10.574Z,14.86
2022-11-05T09:54:10.092Z,14.85
2022-11-05T09:55:09.679Z,14.86
2022-11-05T09:56:10.673Z,14.89
2022-11-05T09:57:10.435Z,14.93
2022-11-05T09:58:10.154Z,14.96
2022-11-05T09:59:10.628Z,14.97
2022-11-05T10:00:10.752Z,14.98
2022-11-05T10:01:09.962Z,14.99
2022-11-05T10:02:10.355Z,14.99
2022-11-05T10:03:10.176Z,15.02
2022-11-05T10:04:10.111Z,15.05
2022-11-05T10:05:10.985Z,15.07
2022-11-05T10:06:09.640Z,15.13
2022-11-05T10:07:11.518Z,15.18
2022-11-05T10:08:10.298Z,15.22
2022-11-05T10:09:10.080Z,15.25
2022-11-05T10:10:10.736Z,15.27
2022-11-05T10:11:10.365Z,15.31
2022-11-05T10:12:09.863Z,15.36
2022-11-05T10:13:10.404Z,15.37
2022-11-05T10:14:10.068Z,15.39
2022-11-05T10:15:10.676Z,15.45
2022-11-05T10:16:10.289Z,15.48
2022-11-05T10:17:10.611Z,15.45
2022-11-05T10:18:10.383Z,15.46
2022-11-05T10:19:10.812Z,15.47
2022-11-05T10:20:10.635Z,15.52
2022-11-05T10:21:10.215Z,15.56
2022-11-05T10:22:09.867Z,15.60
2022-11-05T10:23:11.109Z,15.62
2022-11-05T10:24:10.040Z,15.64
2022-11-05T10:25:10.918Z,15.63
2022-11-05T10:26:10.618Z,15.61
2022-11-05T10:27:10.310Z,15.61
2022-11-05T10:28:10.692Z,15.60
2022-11-05T10:29:10.289Z,15.58
2022-11-05T10:30:10.455Z,15.57
2022-11-05T10:31:10.295Z,15.59
2022-11-05T10:32:10.146Z,15.59
2022-11-05T10:33:10.425Z,15.60
2022-11-05T10:34:10.059Z,15.60
2022-11-05T10:35:10.900Z,15.64
2022-11-05T10:36:10.753Z,15.67
2022-11-05T10:37:10.341Z,15.66
2022-11-05T10:38:09.948Z,15.65
2022-11-05T10:39:11.129Z,15.65
2022-11-05T10:40:10.989Z,15.63
2022-11-05T10:41:10.302Z,15.68
2022-11-05T10:42:10.041Z,15.71
2022-11-05T10:43:10.915Z,15.71
2022-11-05T10:44:13.568Z,15.77
2022-11-05T10:45:10.701Z,15.79
2022-11-05T10:46:10.767Z,15.85
2022-11-05T10:47:10.084Z,15.91
2022-11-05T10:48:11.150Z,15.93
2022-11-05T10:49:10.583Z,15.96
2022-11-05T10:50:10.293Z,16.00
2022-11-05T10:51:10.126Z,16.02
2022-11-05T10:52:10.151Z,16.03
2022-11-05T10:53:10.748Z,16.07
2022-11-05T10:54:10.513Z,16.11
2022-11-05T10:55:15.156Z,16.13
2022-11-05T10:56:10.537Z,16.21
2022-11-05T10:57:10.274Z,16.23
2022-11-05T10:58:10.044Z,16.26
2022-11-05T10:59:12.345Z,16.28
2022-11-05T11:00:10.463Z,16.34
2022-11-05T11:01:10.771Z,16.35
2022-11-05T11:02:10.583Z,16.36
2022-11-05T11:03:18.463Z,16.39
2022-11-05T11:04:10.110Z,16.45
2022-11-05T11:05:10.657Z,16.52
2022-11-05T11:06:10.496Z,16.57
2022-11-05T11:07:18.441Z,16.62
2022-11-05T11:08:10.147Z,16.67
2022-11-05T11:09:10.125Z,16.69
2022-11-05T11:10:10.014Z,16.70
2022-11-05T11:11:10.989Z,16.70
2022-11-05T11:12:10.990Z,16.70
2022-11-05T11:13:11.101Z,16.68
2022-11-05T11:14:10.080Z,16.65
2022-11-05T11:15:11.017Z,16.68
2022-11-05T11:16:10.787Z,16.70
2022-11-05T11:17:10.589Z,16.68
2022-11-05T11:18:10.312Z,16.68
2022-11-05T11:19:10.232Z,16.72
2022-11-05T11:20:10.254Z,16.75
2022-11-05T11:21:25.206Z,16.75
2022-11-05T11:22:10.208Z,16.76
2022-11-05T11:23:10.838Z,16.77
2022-11-05T11:24:10.683Z,16.75
2022-11-05T11:25:10.399Z,16.75
2022-11-05T11:26:10.084Z,16.75
2022-11-05T11:27:29.746Z,16.74
2022-11-05T11:28:10.201Z,16.76
2022-11-05T11:29:10.287Z,16.74
2022-11-05T11:30:10.336Z,16.70
2022-11-05T11:31:11.009Z,16.75
2022-11-05T11:32:10.632Z,16.76
2022-11-05T11:33:10.706Z,16.79
2022-11-05T11:34:10.627Z,16.82
2022-11-05T11:35:10.295Z,16.87
2022-11-05T11:36:10.778Z,16.85
2022-11-05T11:37:12.941Z,16.79
2022-11-05T11:38:10.239Z,16.77
2022-11-05T11:39:10.249Z,16.79
2022-11-05T11:40:10.431Z,16.83
2022-11-05T11:41:10.624Z,16.81
2022-11-05T11:42:10.491Z,16.75
2022-11-05T11:43:10.758Z,16.67
2022-11-05T11:44:10.989Z,16.67
2022-11-05T11:45:10.809Z,16.61
2022-11-05T11:46:14.915Z,16.62
2022-11-05T11:47:10.205Z,16.63
2022-11-05T11:48:10.135Z,16.63
2022-11-05T11:49:10.972Z,16.64
2022-11-05T11:50:10.784Z,16.65
2022-11-05T11:52:10.936Z,16.72
2022-11-05T11:53:10.918Z,16.72
2022-11-05T11:54:09.980Z,16.69
2022-11-05T11:55:10.960Z,16.65
2022-11-05T11:56:10.749Z,16.69
2022-11-05T11:57:14.268Z,16.72
2022-11-05T11:58:10.054Z,16.74
2022-11-05T11:59:10.961Z,16.76
2022-11-05T12:00:11.749Z,16.76
2022-11-05T12:01:09.939Z,16.75
2022-11-05T12:02:10.794Z,16.71
2022-11-05T12:03:10.805Z,16.70
2022-11-05T12:04:09.991Z,16.70
2022-11-05T12:05:10.674Z,16.70
2022-11-05T12:06:10.289Z,16.72
2022-11-05T12:07:10.019Z,16.75
2022-11-05T12:08:10.545Z,16.73
2022-11-05T12:09:10.024Z,16.77
2022-11-05T12:10:10.714Z,16.73
2022-11-05T12:11:10.571Z,16.75
2022-11-05T12:12:10.116Z,16.74
2022-11-05T12:13:11.172Z,16.75
2022-11-05T12:14:10.080Z,16.75
2022-11-05T12:15:10.851Z,16.76
2022-11-05T12:16:10.271Z,16.74
2022-11-05T12:17:10.260Z,16.77
2022-11-05T12:18:10.318Z,16.80
2022-11-05T12:19:10.045Z,16.80
2022-11-05T12:20:10.821Z,16.85
2022-11-05T12:21:10.367Z,16.86
2022-11-05T12:22:09.925Z,16.86
2022-11-05T12:23:10.877Z,16.85
2022-11-05T12:24:10.614Z,16.89
2022-11-05T12:25:10.560Z,16.93
2022-11-05T12:26:10.095Z,16.90
2022-11-05T12:27:10.867Z,16.88
2022-11-05T12:28:10.656Z,16.89
2022-11-05T12:29:18.795Z,16.88
2022-11-05T12:30:09.985Z,16.85
2022-11-05T12:31:10.532Z,16.88
2022-11-05T12:32:10.438Z,16.92
2022-11-05T12:33:10.444Z,16.92
2022-11-05T12:34:10.228Z,16.96
2022-11-05T12:35:10.199Z,17
2022-11-05T12:36:10.188Z,17.02
2022-11-05T12:37:09.982Z,17.01
2022-11-05T12:38:10.558Z,17.01
2022-11-05T12:39:10.498Z,16.98
2022-11-05T12:40:10.197Z,16.96
2022-11-05T12:41:09.901Z,16.96
2022-11-05T12:42:10.579Z,16.98
2022-11-05T12:43:11.936Z,17
2022-11-05T12:44:10.604Z,16.97
2022-11-05T12:45:10.363Z,16.97
2022-11-05T12:46:10.166Z,16.95
2022-11-05T12:47:10.186Z,16.93
2022-11-05T12:48:10.695Z,16.92
2022-11-05T12:49:10.023Z,16.91
2022-11-05T12:50:10.213Z,16.89
2022-11-05T12:51:10.592Z,16.89
2022-11-05T12:52:10.310Z,16.91
2022-11-05T12:53:10.351Z,16.95
2022-11-05T12:54:10.022Z,16.96
2022-11-05T12:55:10.929Z,16.98
2022-11-05T12:56:10.663Z,16.98
2022-11-05T12:57:10.466Z,16.98
2022-11-05T12:58:10.018Z,16.98